Startpagina
METAR-TAF:

METAR-TAF

Vliegvelden :

J6-a, Nederland

Productieplatform

breedte: 53-49-27N, lengte: 2-56-43E, hoogte: 34 m

Actueel weer

Dit bericht is 41 minuten geleden gemaakt, om 10:25 UTC
Wind 14 kt uit het zuidoosten, variërend tussen het noordoosten en het zuiden
Temperatuur 14°C
Vochtigheid 94%
Druk 1023 hPa
Zicht 10 km of meer

METAR: EHJA 261025Z AUTO 13014KT 040V170 9999 NSC 14/13 Q1023

Tijdstip: 13:06 (11:06 UTC)


TAF: ontbreekt

Waarnemingen en weersverwachtingen van meer dan 4000 vliegvelden (METAR en TAF).

De beschikbare stations zijn de gele en rode punten op de kaart.

Ga met uw muis naar het station om de naam te zien.

Klik dan om waarnemingen en weersverwachtingen te zien.

kaart wijzigen: klik op de groene knoppen met een zwart kruis om in te zoomen, op de groene knop met een streepje om uit te zoomen of op de groene pijlen voor aangrenzende kaarten.


METAR-TAF: